sensor_id;sensor_type;location;lat;lon;timestamp;pressure;altitude;pressure_sealevel;temperature;humidity
77482;BME280;66582;43.004;-75.010;2023-04-24T00:02:02;100173.65;;;7.80;47.75
77482;BME280;66582;43.004;-75.010;2023-04-24T00:04:27;100174.56;;;7.44;47.83
77482;BME280;66582;43.004;-75.010;2023-04-24T00:06:52;100168.32;;;8.06;46.52
77482;BME280;66582;43.004;-75.010;2023-04-24T00:09:17;100170.23;;;8.88;44.30
77482;BME280;66582;43.004;-75.010;2023-04-24T00:11:42;100181.26;;;8.27;45.43
77482;BME280;66582;43.004;-75.010;2023-04-24T00:14:08;100182.04;;;9.43;43.17
77482;BME280;66582;43.004;-75.010;2023-04-24T00:16:33;100183.76;;;7.94;47.02
77482;BME280;66582;43.004;-75.010;2023-04-24T00:18:58;100190.92;;;7.83;47.20
77482;BME280;66582;43.004;-75.010;2023-04-24T00:21:24;100190.85;;;8.80;45.34
77482;BME280;66582;43.004;-75.010;2023-04-24T00:23:48;100201.34;;;8.11;48.13
77482;BME280;66582;43.004;-75.010;2023-04-24T00:26:14;100209.49;;;8.41;48.19
77482;BME280;66582;43.004;-75.010;2023-04-24T00:28:39;100213.33;;;8.70;47.70
77482;BME280;66582;43.004;-75.010;2023-04-24T00:31:04;100227.67;;;7.05;51.67
77482;BME280;66582;43.004;-75.010;2023-04-24T00:33:30;100235.04;;;6.87;54.00
77482;BME280;66582;43.004;-75.010;2023-04-24T00:35:54;100252.62;;;6.14;54.92
77482;BME280;66582;43.004;-75.010;2023-04-24T00:38:20;100266.71;;;6.87;57.42
77482;BME280;66582;43.004;-75.010;2023-04-24T00:40:44;100274.86;;;7.13;57.13
77482;BME280;66582;43.004;-75.010;2023-04-24T00:43:09;100289.52;;;6.56;57.82
77482;BME280;66582;43.004;-75.010;2023-04-24T00:45:34;100294.05;;;5.40;60.21
77482;BME280;66582;43.004;-75.010;2023-04-24T00:48:01;100299.36;;;6.00;61.24
77482;BME280;66582;43.004;-75.010;2023-04-24T00:50:26;100302.79;;;7.87;57.63
77482;BME280;66582;43.004;-75.010;2023-04-24T00:52:51;100309.67;;;6.66;59.14
77482;BME280;66582;43.004;-75.010;2023-04-24T00:55:17;100320.87;;;5.81;63.57
77482;BME280;66582;43.004;-75.010;2023-04-24T00:57:41;100318.98;;;6.42;62.05
77482;BME280;66582;43.004;-75.010;2023-04-24T01:00:09;100323.95;;;7.53;60.62
77482;BME280;66582;43.004;-75.010;2023-04-24T01:02:33;100326.39;;;7.63;58.15
77482;BME280;66582;43.004;-75.010;2023-04-24T01:04:58;100342.71;;;5.38;63.88
77482;BME280;66582;43.004;-75.010;2023-04-24T01:07:24;100340.56;;;5.97;69.99
77482;BME280;66582;43.004;-75.010;2023-04-24T01:09:50;100342.82;;;6.40;64.55
77482;BME280;66582;43.004;-75.010;2023-04-24T01:12:14;100344.20;;;6.37;64.09
77482;BME280;66582;43.004;-75.010;2023-04-24T01:14:39;100353.14;;;4.80;70.06
77482;BME280;66582;43.004;-75.010;2023-04-24T01:17:06;100350.05;;;6.06;69.67
77482;BME280;66582;43.004;-75.010;2023-04-24T01:19:30;100348.98;;;6.96;65.93
77482;BME280;66582;43.004;-75.010;2023-04-24T01:21:58;100351.87;;;7.51;63.26
77482;BME280;66582;43.004;-75.010;2023-04-24T01:24:21;100358.10;;;6.74;65.71
77482;BME280;66582;43.004;-75.010;2023-04-24T01:26:45;100361.20;;;7.82;64.21
77482;BME280;66582;43.004;-75.010;2023-04-24T01:29:11;100356.40;;;8.42;60.67
77482;BME280;66582;43.004;-75.010;2023-04-24T01:31:37;100359.41;;;9.18;58.93
77482;BME280;66582;43.004;-75.010;2023-04-24T01:34:02;100370.21;;;5.85;66.39
77482;BME280;66582;43.004;-75.010;2023-04-24T01:36:29;100370.15;;;6.90;68.30
77482;BME280;66582;43.004;-75.010;2023-04-24T01:38:54;100371.43;;;6.73;69.05
77482;BME280;66582;43.004;-75.010;2023-04-24T01:41:19;100372.60;;;7.74;65.08
77482;BME280;66582;43.004;-75.010;2023-04-24T01:43:44;100376.48;;;6.53;63.65
77482;BME280;66582;43.004;-75.010;2023-04-24T01:46:10;100375.53;;;7.80;63.11
77482;BME280;66582;43.004;-75.010;2023-04-24T01:48:36;100379.40;;;5.99;65.64
77482;BME280;66582;43.004;-75.010;2023-04-24T01:51:00;100381.37;;;6.48;69.20
77482;BME280;66582;43.004;-75.010;2023-04-24T01:53:25;100382.09;;;5.88;71.55
77482;BME280;66582;43.004;-75.010;2023-04-24T01:55:51;100387.53;;;5.08;72.37
77482;BME280;66582;43.004;-75.010;2023-04-24T01:58:16;100379.85;;;6.92;68.28
77482;BME280;66582;43.004;-75.010;2023-04-24T02:00:41;100381.96;;;7.59;67.03
77482;BME280;66582;43.004;-75.010;2023-04-24T02:03:07;100385.46;;;6.64;68.84
77482;BME280;66582;43.004;-75.010;2023-04-24T02:05:33;100386.40;;;5.46;72.32
77482;BME280;66582;43.004;-75.010;2023-04-24T02:07:59;100383.47;;;6.18;70.56
77482;BME280;66582;43.004;-75.010;2023-04-24T02:10:24;100384.55;;;7.19;68.29
77482;BME280;66582;43.004;-75.010;2023-04-24T02:12:49;100391.62;;;5.96;70.28
77482;BME280;66582;43.004;-75.010;2023-04-24T02:15:15;100396.27;;;5.46;75.53
77482;BME280;66582;43.004;-75.010;2023-04-24T02:17:39;100392.71;;;6.10;72.38
77482;BME280;66582;43.004;-75.010;2023-04-24T02:20:06;100389.96;;;6.19;71.34
77482;BME280;66582;43.004;-75.010;2023-04-24T02:22:30;100386.66;;;5.50;72.15
77482;BME280;66582;43.004;-75.010;2023-04-24T02:24:55;100385.96;;;5.70;71.32
77482;BME280;66582;43.004;-75.010;2023-04-24T02:27:20;100380.39;;;6.96;68.43
77482;BME280;66582;43.004;-75.010;2023-04-24T02:29:46;100375.06;;;8.11;63.96
77482;BME280;66582;43.004;-75.010;2023-04-24T02:32:13;100377.09;;;6.94;66.41
77482;BME280;66582;43.004;-75.010;2023-04-24T02:34:38;100377.44;;;6.43;67.40
77482;BME280;66582;43.004;-75.010;2023-04-24T02:37:02;100375.94;;;7.52;68.02
77482;BME280;66582;43.004;-75.010;2023-04-24T02:39:28;100370.53;;;8.32;64.06
77482;BME280;66582;43.004;-75.010;2023-04-24T02:41:53;100369.35;;;7.93;62.80
77482;BME280;66582;43.004;-75.010;2023-04-24T02:44:18;100363.07;;;8.60;61.29
77482;BME280;66582;43.004;-75.010;2023-04-24T02:46:44;100370.56;;;7.56;62.49
77482;BME280;66582;43.004;-75.010;2023-04-24T02:49:10;100368.31;;;6.87;64.10
77482;BME280;66582;43.004;-75.010;2023-04-24T02:51:34;100367.79;;;6.44;67.00
77482;BME280;66582;43.004;-75.010;2023-04-24T02:53:59;100361.71;;;7.57;64.00
77482;BME280;66582;43.004;-75.010;2023-04-24T02:56:25;100363.90;;;5.74;66.66
77482;BME280;66582;43.004;-75.010;2023-04-24T02:58:50;100362.50;;;7.93;63.73
77482;BME280;66582;43.004;-75.010;2023-04-24T03:01:15;100366.17;;;5.84;69.34
77482;BME280;66582;43.004;-75.010;2023-04-24T03:03:40;100365.59;;;5.79;72.24
77482;BME280;66582;43.004;-75.010;2023-04-24T03:06:06;100359.70;;;7.53;64.64
77482;BME280;66582;43.004;-75.010;2023-04-24T03:08:31;100368.61;;;5.04;75.24
77482;BME280;66582;43.004;-75.010;2023-04-24T03:10:56;100366.26;;;5.62;71.07
77482;BME280;66582;43.004;-75.010;2023-04-24T03:13:22;100365.31;;;6.37;70.68
77482;BME280;66582;43.004;-75.010;2023-04-24T03:15:47;100366.33;;;6.53;69.46
77482;BME280;66582;43.004;-75.010;2023-04-24T03:18:12;100363.66;;;7.77;66.46
77482;BME280;66582;43.004;-75.010;2023-04-24T03:20:40;100363.80;;;6.64;66.88
77482;BME280;66582;43.004;-75.010;2023-04-24T03:23:03;100361.39;;;6.98;68.86
77482;BME280;66582;43.004;-75.010;2023-04-24T03:25:29;100352.98;;;7.59;65.51
77482;BME280;66582;43.004;-75.010;2023-04-24T03:27:54;100352.15;;;7.75;63.30
77482;BME280;66582;43.004;-75.010;2023-04-24T03:30:19;100360.82;;;6.64;70.94
77482;BME280;66582;43.004;-75.010;2023-04-24T03:32:45;100367.60;;;6.80;72.20
77482;BME280;66582;43.004;-75.010;2023-04-24T03:35:10;100368.85;;;6.91;73.93
77482;BME280;66582;43.004;-75.010;2023-04-24T03:37:36;100368.90;;;7.00;71.53
77482;BME280;66582;43.004;-75.010;2023-04-24T03:40:02;100360.56;;;7.80;64.83
77482;BME280;66582;43.004;-75.010;2023-04-24T03:42:26;100367.46;;;5.99;74.50
77482;BME280;66582;43.004;-75.010;2023-04-24T03:44:51;100363.45;;;6.17;76.54
77482;BME280;66582;43.004;-75.010;2023-04-24T03:47:17;100358.02;;;6.53;74.06
77482;BME280;66582;43.004;-75.010;2023-04-24T03:49:42;100357.99;;;6.44;74.11
77482;BME280;66582;43.004;-75.010;2023-04-24T03:52:08;100362.48;;;5.91;76.77
77482;BME280;66582;43.004;-75.010;2023-04-24T03:54:33;100368.15;;;5.76;77.92
77482;BME280;66582;43.004;-75.010;2023-04-24T03:56:58;100366.68;;;4.84;82.96
77482;BME280;66582;43.004;-75.010;2023-04-24T03:59:24;100362.34;;;4.91;82.28
77482;BME280;66582;43.004;-75.010;2023-04-24T04:01:50;100363.81;;;4.78;81.80
77482;BME280;66582;43.004;-75.010;2023-04-24T04:04:15;100355.85;;;5.81;80.13
77482;BME280;66582;43.004;-75.010;2023-04-24T04:06:40;100348.04;;;6.20;77.93
77482;BME280;66582;43.004;-75.010;2023-04-24T04:09:06;100344.66;;;6.75;74.70
77482;BME280;66582;43.004;-75.010;2023-04-24T04:11:31;100341.79;;;7.27;72.70
77482;BME280;66582;43.004;-75.010;2023-04-24T04:13:57;100344.64;;;7.55;72.36
77482;BME280;66582;43.004;-75.010;2023-04-24T04:16:21;100341.11;;;6.38;73.67
77482;BME280;66582;43.004;-75.010;2023-04-24T04:18:47;100344.78;;;6.04;76.09
77482;BME280;66582;43.004;-75.010;2023-04-24T04:21:12;100344.82;;;5.60;78.25
77482;BME280;66582;43.004;-75.010;2023-04-24T04:23:38;100347.85;;;6.82;73.93
77482;BME280;66582;43.004;-75.010;2023-04-24T04:26:03;100351.53;;;7.15;73.15
77482;BME280;66582;43.004;-75.010;2023-04-24T04:28:29;100344.59;;;8.03;69.42
77482;BME280;66582;43.004;-75.010;2023-04-24T04:30:54;100346.63;;;8.03;68.15
77482;BME280;66582;43.004;-75.010;2023-04-24T04:33:19;100343.17;;;7.40;69.47
77482;BME280;66582;43.004;-75.010;2023-04-24T04:35:45;100345.39;;;6.24;74.48
77482;BME280;66582;43.004;-75.010;2023-04-24T04:38:10;100347.29;;;6.03;75.61
77482;BME280;66582;43.004;-75.010;2023-04-24T04:40:35;100344.52;;;6.99;74.22
77482;BME280;66582;43.004;-75.010;2023-04-24T04:43:01;100349.44;;;6.51;73.50
77482;BME280;66582;43.004;-75.010;2023-04-24T04:45:26;100348.28;;;6.51;76.42
77482;BME280;66582;43.004;-75.010;2023-04-24T04:47:51;100345.82;;;6.70;73.70
77482;BME280;66582;43.004;-75.010;2023-04-24T04:50:16;100345.54;;;7.13;73.88
77482;BME280;66582;43.004;-75.010;2023-04-24T04:52:44;100347.07;;;6.91;74.86
77482;BME280;66582;43.004;-75.010;2023-04-24T04:55:09;100351.68;;;6.87;74.99
77482;BME280;66582;43.004;-75.010;2023-04-24T04:57:34;100348.18;;;7.68;70.31
77482;BME280;66582;43.004;-75.010;2023-04-24T04:59:59;100350.92;;;6.81;71.94
77482;BME280;66582;43.004;-75.010;2023-04-24T05:02:25;100353.57;;;6.06;77.82
77482;BME280;66582;43.004;-75.010;2023-04-24T05:04:49;100354.90;;;5.56;81.73
77482;BME280;66582;43.004;-75.010;2023-04-24T05:07:15;100357.67;;;5.25;84.83
77482;BME280;66582;43.004;-75.010;2023-04-24T05:09:41;100350.63;;;6.95;77.24
77482;BME280;66582;43.004;-75.010;2023-04-24T05:12:06;100345.52;;;7.26;73.93
77482;BME280;66582;43.004;-75.010;2023-04-24T05:14:32;100340.36;;;7.43;70.88
77482;BME280;66582;43.004;-75.010;2023-04-24T05:16:58;100333.19;;;8.96;65.55
77482;BME280;66582;43.004;-75.010;2023-04-24T05:19:23;100324.32;;;9.27;62.98
77482;BME280;66582;43.004;-75.010;2023-04-24T05:21:48;100321.25;;;9.59;60.99
77482;BME280;66582;43.004;-75.010;2023-04-24T05:24:14;100320.28;;;9.17;62.13
77482;BME280;66582;43.004;-75.010;2023-04-24T05:26:40;100323.82;;;8.44;64.63
77482;BME280;66582;43.004;-75.010;2023-04-24T05:29:06;100327.45;;;8.09;66.80
77482;BME280;66582;43.004;-75.010;2023-04-24T05:31:32;100327.64;;;6.91;68.62
77482;BME280;66582;43.004;-75.010;2023-04-24T05:33:56;100326.17;;;7.07;70.59
77482;BME280;66582;43.004;-75.010;2023-04-24T05:36:22;100323.85;;;7.49;69.80
77482;BME280;66582;43.004;-75.010;2023-04-24T05:38:48;100308.14;;;8.99;63.53
77482;BME280;66582;43.004;-75.010;2023-04-24T05:41:13;100305.35;;;9.34;60.46
77482;BME280;66582;43.004;-75.010;2023-04-24T05:43:39;100309.62;;;8.73;62.33
77482;BME280;66582;43.004;-75.010;2023-04-24T05:46:04;100312.71;;;7.96;65.40
77482;BME280;66582;43.004;-75.010;2023-04-24T05:48:30;100317.42;;;6.35;68.34
77482;BME280;66582;43.004;-75.010;2023-04-24T05:50:55;100310.13;;;8.59;62.83
77482;BME280;66582;43.004;-75.010;2023-04-24T05:53:20;100303.80;;;9.25;59.49
77482;BME280;66582;43.004;-75.010;2023-04-24T05:55:45;100304.30;;;9.72;57.58
77482;BME280;66582;43.004;-75.010;2023-04-24T05:58:11;100297.41;;;10.71;55.42
77482;BME280;66582;43.004;-75.010;2023-04-24T06:00:36;100299.32;;;10.76;54.83
77482;BME280;66582;43.004;-75.010;2023-04-24T06:03:01;100298.86;;;8.91;58.17
77482;BME280;66582;43.004;-75.010;2023-04-24T06:05:26;100298.27;;;9.19;58.45
77482;BME280;66582;43.004;-75.010;2023-04-24T06:07:52;100297.87;;;10.08;55.90
77482;BME280;66582;43.004;-75.010;2023-04-24T06:10:18;100302.38;;;8.38;60.90
77482;BME280;66582;43.004;-75.010;2023-04-24T06:12:44;100304.51;;;7.55;63.78
77482;BME280;66582;43.004;-75.010;2023-04-24T06:15:10;100305.32;;;7.97;65.02
77482;BME280;66582;43.004;-75.010;2023-04-24T06:17:35;100306.63;;;7.45;66.76
77482;BME280;66582;43.004;-75.010;2023-04-24T06:20:00;100304.54;;;7.26;67.80
77482;BME280;66582;43.004;-75.010;2023-04-24T06:22:25;100302.92;;;7.04;69.11
77482;BME280;66582;43.004;-75.010;2023-04-24T06:24:51;100303.50;;;7.46;68.23
77482;BME280;66582;43.004;-75.010;2023-04-24T06:27:16;100301.12;;;6.81;70.62
77482;BME280;66582;43.004;-75.010;2023-04-24T06:29:42;100301.85;;;5.95;72.98
77482;BME280;66582;43.004;-75.010;2023-04-24T06:32:08;100303.79;;;5.83;76.50
77482;BME280;66582;43.004;-75.010;2023-04-24T06:34:33;100300.89;;;6.06;75.73
77482;BME280;66582;43.004;-75.010;2023-04-24T06:36:59;100301.39;;;5.93;76.37
77482;BME280;66582;43.004;-75.010;2023-04-24T06:39:24;100301.57;;;5.61;78.82
77482;BME280;66582;43.004;-75.010;2023-04-24T06:41:50;100300.99;;;6.02;78.07
77482;BME280;66582;43.004;-75.010;2023-04-24T06:44:15;100299.02;;;5.96;76.81
77482;BME280;66582;43.004;-75.010;2023-04-24T06:46:40;100299.34;;;6.36;75.19
77482;BME280;66582;43.004;-75.010;2023-04-24T06:49:06;100299.50;;;6.63;73.75
77482;BME280;66582;43.004;-75.010;2023-04-24T06:51:32;100287.71;;;7.49;70.00
77482;BME280;66582;43.004;-75.010;2023-04-24T06:53:57;100282.60;;;7.87;66.68
77482;BME280;66582;43.004;-75.010;2023-04-24T06:56:23;100279.08;;;9.19;63.35
77482;BME280;66582;43.004;-75.010;2023-04-24T06:58:48;100275.98;;;9.76;59.16
77482;BME280;66582;43.004;-75.010;2023-04-24T07:01:13;100275.45;;;8.99;59.69
77482;BME280;66582;43.004;-75.010;2023-04-24T07:03:39;100274.80;;;9.13;59.92
77482;BME280;66582;43.004;-75.010;2023-04-24T07:06:05;100273.81;;;9.01;59.24
77482;BME280;66582;43.004;-75.010;2023-04-24T07:08:29;100275.59;;;7.94;62.18
77482;BME280;66582;43.004;-75.010;2023-04-24T07:10:54;100279.79;;;7.59;64.24
77482;BME280;66582;43.004;-75.010;2023-04-24T07:13:20;100268.65;;;9.14;60.98
77482;BME280;66582;43.004;-75.010;2023-04-24T07:15:46;100268.30;;;9.72;58.20
77482;BME280;66582;43.004;-75.010;2023-04-24T07:18:10;100263.61;;;9.58;56.52
77482;BME280;66582;43.004;-75.010;2023-04-24T07:20:36;100271.39;;;7.47;63.65
77482;BME280;66582;43.004;-75.010;2023-04-24T07:23:03;100268.57;;;7.12;65.64
77482;BME280;66582;43.004;-75.010;2023-04-24T07:25:27;100269.96;;;7.67;64.60
77482;BME280;66582;43.004;-75.010;2023-04-24T07:27:54;100278.50;;;6.44;68.27
77482;BME280;66582;43.004;-75.010;2023-04-24T07:30:18;100274.17;;;6.43;70.65
77482;BME280;66582;43.004;-75.010;2023-04-24T07:32:44;100267.97;;;8.20;63.75
77482;BME280;66582;43.004;-75.010;2023-04-24T07:35:09;100270.74;;;7.27;66.93
77482;BME280;66582;43.004;-75.010;2023-04-24T07:37:34;100264.78;;;7.80;64.08
77482;BME280;66582;43.004;-75.010;2023-04-24T07:39:59;100266.87;;;8.76;60.78
77482;BME280;66582;43.004;-75.010;2023-04-24T07:42:25;100271.68;;;7.85;63.61
77482;BME280;66582;43.004;-75.010;2023-04-24T07:44:50;100279.19;;;6.83;67.17
77482;BME280;66582;43.004;-75.010;2023-04-24T07:47:15;100280.56;;;6.36;70.59
77482;BME280;66582;43.004;-75.010;2023-04-24T07:49:41;100291.50;;;3.90;79.77
77482;BME280;66582;43.004;-75.010;2023-04-24T07:52:06;100291.70;;;3.81;83.61
77482;BME280;66582;43.004;-75.010;2023-04-24T07:54:31;100289.11;;;4.84;83.00
77482;BME280;66582;43.004;-75.010;2023-04-24T07:56:57;100294.01;;;3.67;84.96
77482;BME280;66582;43.004;-75.010;2023-04-24T07:59:22;100298.98;;;3.18;91.34
77482;BME280;66582;43.004;-75.010;2023-04-24T08:01:47;100296.22;;;4.36;85.86
77482;BME280;66582;43.004;-75.010;2023-04-24T08:04:14;100301.03;;;3.52;89.52
77482;BME280;66582;43.004;-75.010;2023-04-24T08:06:39;100299.94;;;3.95;92.32
77482;BME280;66582;43.004;-75.010;2023-04-24T08:09:05;100302.81;;;3.87;93.20
77482;BME280;66582;43.004;-75.010;2023-04-24T08:11:30;100298.19;;;4.33;88.29
77482;BME280;66582;43.004;-75.010;2023-04-24T08:13:55;100301.91;;;3.12;93.20
77482;BME280;66582;43.004;-75.010;2023-04-24T08:16:21;100285.78;;;5.52;85.46
77482;BME280;66582;43.004;-75.010;2023-04-24T08:18:46;100283.13;;;6.03;81.23
77482;BME280;66582;43.004;-75.010;2023-04-24T08:21:12;100273.24;;;7.64;74.33
77482;BME280;66582;43.004;-75.010;2023-04-24T08:23:38;100275.11;;;7.71;72.88
77482;BME280;66582;43.004;-75.010;2023-04-24T08:26:03;100272.87;;;7.68;71.14
77482;BME280;66582;43.004;-75.010;2023-04-24T08:28:29;100271.93;;;8.41;68.00
77482;BME280;66582;43.004;-75.010;2023-04-24T08:30:54;100272.01;;;9.01;65.62
77482;BME280;66582;43.004;-75.010;2023-04-24T08:33:21;100274.41;;;8.72;64.83
77482;BME280;66582;43.004;-75.010;2023-04-24T08:35:45;100277.09;;;8.67;65.54
77482;BME280;66582;43.004;-75.010;2023-04-24T08:38:10;100277.14;;;8.33;66.27
77482;BME280;66582;43.004;-75.010;2023-04-24T08:40:37;100274.47;;;8.10;66.93
77482;BME280;66582;43.004;-75.010;2023-04-24T08:43:01;100275.96;;;8.27;67.57
77482;BME280;66582;43.004;-75.010;2023-04-24T08:45:26;100272.90;;;8.99;63.58
77482;BME280;66582;43.004;-75.010;2023-04-24T08:47:53;100272.08;;;9.08;63.88
77482;BME280;66582;43.004;-75.010;2023-04-24T08:50:17;100270.18;;;9.12;64.39
77482;BME280;66582;43.004;-75.010;2023-04-24T08:52:43;100269.77;;;8.29;64.26
77482;BME280;66582;43.004;-75.010;2023-04-24T08:55:09;100260.76;;;9.30;63.12
77482;BME280;66582;43.004;-75.010;2023-04-24T08:57:33;100259.20;;;9.96;61.72
77482;BME280;66582;43.004;-75.010;2023-04-24T08:59:59;100262.55;;;9.44;61.21
77482;BME280;66582;43.004;-75.010;2023-04-24T09:02:25;100267.52;;;8.20;65.26
77482;BME280;66582;43.004;-75.010;2023-04-24T09:04:50;100269.85;;;7.03;69.97
77482;BME280;66582;43.004;-75.010;2023-04-24T09:07:16;100266.70;;;7.89;68.60
77482;BME280;66582;43.004;-75.010;2023-04-24T09:09:41;100262.29;;;8.65;66.85
77482;BME280;66582;43.004;-75.010;2023-04-24T09:12:05;100265.46;;;8.09;67.81
77482;BME280;66582;43.004;-75.010;2023-04-24T09:14:30;100269.30;;;7.88;68.65
77482;BME280;66582;43.004;-75.010;2023-04-24T09:16:55;100264.34;;;8.16;66.88
77482;BME280;66582;43.004;-75.010;2023-04-24T09:19:20;100260.51;;;8.49;67.17
77482;BME280;66582;43.004;-75.010;2023-04-24T09:21:46;100262.13;;;7.61;68.03
77482;BME280;66582;43.004;-75.010;2023-04-24T09:24:18;100253.31;;;8.48;65.50
77482;BME280;66582;43.004;-75.010;2023-04-24T09:26:36;100259.97;;;7.76;67.20
77482;BME280;66582;43.004;-75.010;2023-04-24T09:29:01;100259.72;;;8.16;66.53
77482;BME280;66582;43.004;-75.010;2023-04-24T09:31:28;100254.48;;;9.04;63.90
77482;BME280;66582;43.004;-75.010;2023-04-24T09:33:57;100258.88;;;8.50;64.58
77482;BME280;66582;43.004;-75.010;2023-04-24T09:36:18;100262.70;;;7.80;64.80
77482;BME280;66582;43.004;-75.010;2023-04-24T09:38:42;100266.01;;;7.93;66.84
77482;BME280;66582;43.004;-75.010;2023-04-24T09:41:10;100266.28;;;8.59;64.24
77482;BME280;66582;43.004;-75.010;2023-04-24T09:43:35;100264.52;;;8.34;63.88
77482;BME280;66582;43.004;-75.010;2023-04-24T09:46:04;100266.00;;;8.59;63.05
77482;BME280;66582;43.004;-75.010;2023-04-24T09:48:30;100264.76;;;8.82;62.45
77482;BME280;66582;43.004;-75.010;2023-04-24T09:50:53;100261.80;;;9.54;60.47
77482;BME280;66582;43.004;-75.010;2023-04-24T09:53:16;100258.75;;;10.37;57.39
77482;BME280;66582;43.004;-75.010;2023-04-24T09:55:45;100271.08;;;7.47;65.12
77482;BME280;66582;43.004;-75.010;2023-04-24T09:58:08;100280.59;;;5.74;74.29
77482;BME280;66582;43.004;-75.010;2023-04-24T10:00:33;100279.35;;;5.99;75.74
77482;BME280;66582;43.004;-75.010;2023-04-24T10:02:58;100279.71;;;7.10;71.23
77482;BME280;66582;43.004;-75.010;2023-04-24T10:05:27;100282.22;;;6.38;73.71
77482;BME280;66582;43.004;-75.010;2023-04-24T10:07:48;100276.37;;;7.22;70.95
77482;BME280;66582;43.004;-75.010;2023-04-24T10:10:14;100273.94;;;7.82;69.15
77482;BME280;66582;43.004;-75.010;2023-04-24T10:12:40;100276.41;;;6.84;69.56
77482;BME280;66582;43.004;-75.010;2023-04-24T10:15:06;100277.46;;;7.87;69.06
77482;BME280;66582;43.004;-75.010;2023-04-24T10:17:30;100277.13;;;7.98;68.68
77482;BME280;66582;43.004;-75.010;2023-04-24T10:19:56;100289.83;;;6.65;70.05
77482;BME280;66582;43.004;-75.010;2023-04-24T10:22:22;100297.01;;;6.58;74.52
77482;BME280;66582;43.004;-75.010;2023-04-24T10:24:48;100303.25;;;6.34;76.86
77482;BME280;66582;43.004;-75.010;2023-04-24T10:27:14;100305.03;;;7.06;73.00
77482;BME280;66582;43.004;-75.010;2023-04-24T10:29:40;100304.88;;;8.23;68.45
77482;BME280;66582;43.004;-75.010;2023-04-24T10:32:06;100308.29;;;7.61;69.22
77482;BME280;66582;43.004;-75.010;2023-04-24T10:34:29;100313.13;;;5.92;74.57
77482;BME280;66582;43.004;-75.010;2023-04-24T10:36:56;100310.74;;;6.79;73.59
77482;BME280;66582;43.004;-75.010;2023-04-24T10:39:20;100311.50;;;6.76;75.46
77482;BME280;66582;43.004;-75.010;2023-04-24T10:41:45;100318.55;;;5.91;76.81
77482;BME280;66582;43.004;-75.010;2023-04-24T10:44:12;100317.38;;;7.07;71.91
77482;BME280;66582;43.004;-75.010;2023-04-24T10:46:37;100320.93;;;7.04;72.70
77482;BME280;66582;43.004;-75.010;2023-04-24T10:49:05;100320.30;;;6.37;74.84
77482;BME280;66582;43.004;-75.010;2023-04-24T10:53:53;100331.90;;;6.49;77.44
77482;BME280;66582;43.004;-75.010;2023-04-24T10:56:18;100329.03;;;8.26;68.59
77482;BME280;66582;43.004;-75.010;2023-04-24T10:58:45;100338.87;;;7.27;69.93
77482;BME280;66582;43.004;-75.010;2023-04-24T11:01:10;100345.47;;;7.24;69.44
77482;BME280;66582;43.004;-75.010;2023-04-24T11:03:35;100348.46;;;6.15;74.03
77482;BME280;66582;43.004;-75.010;2023-04-24T11:06:02;100356.06;;;6.09;75.32
77482;BME280;66582;43.004;-75.010;2023-04-24T11:08:29;100350.40;;;6.13;76.80
77482;BME280;66582;43.004;-75.010;2023-04-24T11:10:57;100344.70;;;7.72;72.21
77482;BME280;66582;43.004;-75.010;2023-04-24T11:13:17;100343.54;;;8.35;68.22
77482;BME280;66582;43.004;-75.010;2023-04-24T11:15:42;100346.21;;;7.50;68.91
77482;BME280;66582;43.004;-75.010;2023-04-24T11:18:12;100342.16;;;9.20;64.79
77482;BME280;66582;43.004;-75.010;2023-04-24T11:20:33;100346.13;;;9.15;65.01
77482;BME280;66582;43.004;-75.010;2023-04-24T11:23:03;100342.84;;;8.93;64.46
77482;BME280;66582;43.004;-75.010;2023-04-24T11:25:24;100341.64;;;9.42;64.13
77482;BME280;66582;43.004;-75.010;2023-04-24T11:27:50;100344.61;;;9.02;63.67
77482;BME280;66582;43.004;-75.010;2023-04-24T11:30:18;100348.94;;;8.74;64.54
77482;BME280;66582;43.004;-75.010;2023-04-24T11:32:41;100351.52;;;9.02;63.96
77482;BME280;66582;43.004;-75.010;2023-04-24T11:35:08;100349.93;;;9.42;63.67
77482;BME280;66582;43.004;-75.010;2023-04-24T11:37:35;100347.26;;;9.97;60.50
77482;BME280;66582;43.004;-75.010;2023-04-24T11:39:58;100345.77;;;10.21;59.06
77482;BME280;66582;43.004;-75.010;2023-04-24T11:42:22;100348.96;;;9.03;61.72
77482;BME280;66582;43.004;-75.010;2023-04-24T11:44:49;100358.90;;;8.37;64.53
77482;BME280;66582;43.004;-75.010;2023-04-24T11:47:13;100371.59;;;6.53;73.37
77482;BME280;66582;43.004;-75.010;2023-04-24T11:49:39;100375.13;;;7.28;72.91
77482;BME280;66582;43.004;-75.010;2023-04-24T11:52:05;100370.10;;;6.67;75.70
77482;BME280;66582;43.004;-75.010;2023-04-24T11:54:29;100373.55;;;6.48;76.60
77482;BME280;66582;43.004;-75.010;2023-04-24T11:56:55;100374.16;;;7.43;73.94
77482;BME280;66582;43.004;-75.010;2023-04-24T11:59:21;100373.52;;;6.96;75.15
77482;BME280;66582;43.004;-75.010;2023-04-24T12:01:47;100371.87;;;6.79;74.68
77482;BME280;66582;43.004;-75.010;2023-04-24T12:04:12;100376.11;;;6.87;76.84
77482;BME280;66582;43.004;-75.010;2023-04-24T12:06:36;100376.73;;;8.43;73.34
77482;BME280;66582;43.004;-75.010;2023-04-24T12:09:02;100365.69;;;9.92;65.16
77482;BME280;66582;43.004;-75.010;2023-04-24T12:11:27;100364.92;;;9.37;63.29
77482;BME280;66582;43.004;-75.010;2023-04-24T12:13:53;100358.71;;;9.79;62.63
77482;BME280;66582;43.004;-75.010;2023-04-24T12:16:18;100359.57;;;10.04;61.31
77482;BME280;66582;43.004;-75.010;2023-04-24T12:18:44;100363.49;;;8.45;63.40
77482;BME280;66582;43.004;-75.010;2023-04-24T12:21:16;100376.58;;;5.83;70.36
77482;BME280;66582;43.004;-75.010;2023-04-24T12:23:35;100368.77;;;8.15;65.47
77482;BME280;66582;43.004;-75.010;2023-04-24T12:26:00;100363.55;;;8.75;64.58
77482;BME280;66582;43.004;-75.010;2023-04-24T12:28:25;100362.04;;;9.55;63.08
77482;BME280;66582;43.004;-75.010;2023-04-24T12:30:50;100360.13;;;10.55;59.84
77482;BME280;66582;43.004;-75.010;2023-04-24T12:33:18;100365.56;;;9.62;56.29